createdAt,value
2018-06-22T00:00:51.350Z,11.23
2018-06-22T00:01:52.733Z,11.19
2018-06-22T00:02:54.120Z,11.26
2018-06-22T00:03:55.510Z,11.23
2018-06-22T00:04:56.914Z,11.24
2018-06-22T00:05:58.284Z,11.19
2018-06-22T00:06:59.677Z,11.17
2018-06-22T00:08:01.054Z,11.20
2018-06-22T00:09:02.440Z,11.20
2018-06-22T00:10:03.834Z,11.13
2018-06-22T00:11:06.151Z,11.12
2018-06-22T00:12:07.533Z,11.09
2018-06-22T00:13:08.918Z,11.11
2018-06-22T00:14:10.294Z,11.11
2018-06-22T00:15:11.681Z,11.12
2018-06-22T00:16:13.069Z,11.12
2018-06-22T00:17:14.454Z,11.16
2018-06-22T00:18:15.854Z,11.20
2018-06-22T00:19:18.043Z,11.17
2018-06-22T00:20:19.433Z,11.08
2018-06-22T00:21:20.807Z,11.03
2018-06-22T00:22:22.186Z,11.09
2018-06-22T00:23:23.582Z,11.11
2018-06-22T00:24:25.890Z,11.13
2018-06-22T00:25:27.274Z,11.05
2018-06-22T00:26:28.650Z,11.09
2018-06-22T00:27:30.036Z,11.03
2018-06-22T00:28:31.428Z,11.11
2018-06-22T00:29:32.820Z,11.17
2018-06-22T00:30:34.200Z,11.05
2018-06-22T00:31:35.578Z,11.11
2018-06-22T00:32:36.954Z,11.13
2018-06-22T00:33:38.340Z,11.16
2018-06-22T00:34:39.721Z,11.06
2018-06-22T00:35:41.110Z,11.06
2018-06-22T00:36:42.501Z,11.12
2018-06-22T00:37:43.888Z,11.21
2018-06-22T00:38:45.274Z,11.19
2018-06-22T00:39:46.665Z,11.17
2018-06-22T00:40:48.050Z,11.13
2018-06-22T00:41:49.440Z,11.09
2018-06-22T00:42:50.821Z,11.13
2018-06-22T00:43:52.195Z,11.02
2018-06-22T00:44:53.577Z,11.03
2018-06-22T00:45:54.964Z,10.99
2018-06-22T00:46:56.339Z,10.94
2018-06-22T00:47:57.724Z,11.05
2018-06-22T00:48:59.115Z,10.99
2018-06-22T00:50:00.493Z,11.01
2018-06-22T00:51:02.774Z,11.03
2018-06-22T00:52:04.153Z,11.01
2018-06-22T00:53:05.530Z,10.98
2018-06-22T00:54:06.923Z,10.98
2018-06-22T00:55:08.297Z,10.94
2018-06-22T00:56:09.680Z,10.98
2018-06-22T00:57:11.063Z,11.05
2018-06-22T00:58:12.446Z,10.98
2018-06-22T00:59:13.842Z,10.99
2018-06-22T01:00:15.210Z,11.01
2018-06-22T01:01:16.601Z,10.98
2018-06-22T01:02:17.981Z,10.98
2018-06-22T01:03:19.380Z,10.98
2018-06-22T01:04:20.751Z,10.95
2018-06-22T01:05:22.137Z,10.95
2018-06-22T01:06:23.519Z,10.99
2018-06-22T01:07:24.907Z,11.02
2018-06-22T01:08:26.281Z,11.03
2018-06-22T01:09:27.668Z,10.98
2018-06-22T01:10:29.049Z,10.98
2018-06-22T01:11:30.429Z,10.95
2018-06-22T01:12:31.820Z,10.95
2018-06-22T01:13:34.152Z,10.99
2018-06-22T01:14:35.532Z,10.88
2018-06-22T01:15:36.913Z,10.91
2018-06-22T01:16:38.299Z,10.98
2018-06-22T01:17:39.685Z,10.87
2018-06-22T01:18:41.063Z,10.84
2018-06-22T01:19:43.100Z,10.78
2018-06-22T01:20:44.485Z,10.80
2018-06-22T01:21:45.856Z,10.90
2018-06-22T01:22:47.240Z,10.86
2018-06-22T01:23:48.616Z,10.90
2018-06-22T01:24:50.014Z,10.94
2018-06-22T01:25:51.392Z,10.87
2018-06-22T01:26:52.764Z,10.81
2018-06-22T01:27:54.152Z,10.72
2018-06-22T01:28:55.528Z,10.76
2018-06-22T01:29:56.918Z,10.70
2018-06-22T01:30:58.306Z,10.70
2018-06-22T01:31:59.682Z,10.75
2018-06-22T01:33:01.092Z,10.70
2018-06-22T01:34:02.482Z,10.66
2018-06-22T01:35:03.856Z,10.66
2018-06-22T01:36:05.228Z,10.66
2018-06-22T01:37:06.624Z,10.69
2018-06-22T01:38:08.037Z,10.72
2018-06-22T01:39:09.418Z,10.66
2018-06-22T01:40:10.790Z,10.72
2018-06-22T01:41:12.195Z,10.73
2018-06-22T01:42:13.581Z,10.66
2018-06-22T01:43:14.978Z,10.69
2018-06-22T01:44:16.357Z,10.69
2018-06-22T01:45:17.753Z,10.72
2018-06-22T01:46:19.133Z,10.70
2018-06-22T01:47:20.538Z,10.63
2018-06-22T01:48:21.909Z,10.63
2018-06-22T01:49:23.286Z,10.62
2018-06-22T01:50:25.535Z,10.58
2018-06-22T01:51:26.938Z,10.65
2018-06-22T01:52:28.315Z,10.60
2018-06-22T01:53:29.689Z,10.69
2018-06-22T01:54:31.094Z,10.69
2018-06-22T01:55:32.460Z,10.68
2018-06-22T01:56:33.862Z,10.70
2018-06-22T01:57:35.244Z,10.52
2018-06-22T01:58:36.627Z,10.57
2018-06-22T01:59:38.022Z,10.57
2018-06-22T02:00:39.398Z,10.60
2018-06-22T02:01:40.785Z,10.57
2018-06-22T02:02:42.173Z,10.63
2018-06-22T02:03:43.551Z,10.47
2018-06-22T02:04:44.931Z,10.46
2018-06-22T02:05:46.367Z,10.51
2018-06-22T02:06:47.685Z,10.46
2018-06-22T02:07:49.092Z,10.49
2018-06-22T02:08:50.471Z,10.49
2018-06-22T02:09:51.854Z,10.47
2018-06-22T02:10:53.227Z,10.46
2018-06-22T02:11:54.611Z,10.49
2018-06-22T02:12:55.991Z,10.44
2018-06-22T02:13:57.380Z,10.47
2018-06-22T02:14:58.765Z,10.51
2018-06-22T02:16:00.145Z,10.49
2018-06-22T02:17:01.545Z,10.46
2018-06-22T02:18:02.920Z,10.44
2018-06-22T02:19:04.306Z,10.43
2018-06-22T02:20:05.689Z,10.46
2018-06-22T02:21:07.076Z,10.49
2018-06-22T02:22:08.458Z,10.43
2018-06-22T02:23:09.832Z,10.51
2018-06-22T02:24:11.218Z,10.38
2018-06-22T02:25:12.594Z,10.52
2018-06-22T02:26:13.972Z,10.47
2018-06-22T02:27:15.361Z,10.52
2018-06-22T02:28:16.741Z,10.46
2018-06-22T02:29:18.136Z,10.46
2018-06-22T02:30:19.520Z,10.51
2018-06-22T02:31:20.911Z,10.49
2018-06-22T02:32:23.047Z,10.43
2018-06-22T02:33:24.425Z,10.47
2018-06-22T02:34:25.823Z,10.46
2018-06-22T02:35:27.193Z,10.47
2018-06-22T02:36:28.576Z,10.47
2018-06-22T02:37:29.971Z,10.52
2018-06-22T02:38:31.341Z,10.47
2018-06-22T02:39:32.729Z,10.46
2018-06-22T02:40:34.120Z,10.46
2018-06-22T02:41:35.499Z,10.51
2018-06-22T02:42:36.884Z,10.47
2018-06-22T02:43:38.264Z,10.51
2018-06-22T02:44:39.645Z,10.55
2018-06-22T02:45:41.024Z,10.55
2018-06-22T02:46:42.410Z,10.52
2018-06-22T02:47:43.789Z,10.43
2018-06-22T02:48:45.172Z,10.46
2018-06-22T02:49:46.556Z,10.47
2018-06-22T02:50:47.933Z,10.43
2018-06-22T02:51:49.312Z,10.51
2018-06-22T02:52:50.690Z,10.46
2018-06-22T02:53:52.085Z,10.49
2018-06-22T02:54:53.475Z,10.47
2018-06-22T02:55:54.862Z,10.49
2018-06-22T02:56:56.235Z,10.44
2018-06-22T02:57:57.618Z,10.51
2018-06-22T02:58:58.988Z,10.49
2018-06-22T03:00:00.365Z,10.60
2018-06-22T03:01:01.745Z,10.63
2018-06-22T03:02:03.125Z,10.60
2018-06-22T03:03:04.510Z,10.57
2018-06-22T03:04:05.895Z,10.62
2018-06-22T03:05:07.273Z,10.60
2018-06-22T03:06:08.675Z,10.72
2018-06-22T03:07:10.045Z,10.63
2018-06-22T03:08:11.431Z,10.68
2018-06-22T03:09:12.805Z,10.69
2018-06-22T03:10:14.195Z,10.65
2018-06-22T03:11:15.576Z,10.73
2018-06-22T03:12:17.741Z,10.72
2018-06-22T03:13:19.125Z,10.70
2018-06-22T03:14:20.512Z,10.76
2018-06-22T03:15:21.899Z,10.69
2018-06-22T03:16:23.281Z,10.72
2018-06-22T03:17:24.662Z,10.78
2018-06-22T03:18:26.042Z,10.80
2018-06-22T03:19:27.414Z,10.76
2018-06-22T03:20:28.808Z,10.84
2018-06-22T03:21:30.188Z,10.86
2018-06-22T03:22:31.574Z,10.91
2018-06-22T03:23:32.960Z,10.90
2018-06-22T03:24:34.342Z,10.90
2018-06-22T03:25:35.744Z,10.98
2018-06-22T03:26:37.128Z,10.94
2018-06-22T03:27:38.512Z,10.98
2018-06-22T03:28:39.890Z,10.98
2018-06-22T03:29:41.276Z,11.02
2018-06-22T03:30:42.657Z,11.03
2018-06-22T03:31:44.040Z,11.03
2018-06-22T03:32:45.436Z,10.94
2018-06-22T03:33:46.825Z,10.99
2018-06-22T03:34:48.219Z,10.98
2018-06-22T03:35:49.593Z,10.95
2018-06-22T03:36:50.978Z,10.98
2018-06-22T03:37:52.370Z,10.99
2018-06-22T03:38:53.752Z,10.98
2018-06-22T03:39:55.136Z,10.99
2018-06-22T03:40:56.515Z,10.95
2018-06-22T03:41:57.890Z,10.98
2018-06-22T03:42:59.297Z,10.94
2018-06-22T03:44:00.671Z,11.06
2018-06-22T03:45:02.067Z,11.05
2018-06-22T03:46:03.436Z,10.99
2018-06-22T03:47:04.827Z,10.98
2018-06-22T03:48:06.213Z,10.93
2018-06-22T03:49:07.599Z,10.98
2018-06-22T03:50:08.982Z,10.91
2018-06-22T03:51:10.363Z,10.95
2018-06-22T03:52:11.746Z,10.95
2018-06-22T03:53:13.140Z,10.91
2018-06-22T03:54:14.532Z,11.01
2018-06-22T03:55:15.898Z,11.05
2018-06-22T03:56:17.282Z,11.01
2018-06-22T03:57:18.670Z,11.02
2018-06-22T03:58:20.049Z,11.02
2018-06-22T03:59:21.439Z,11.02
2018-06-22T04:00:22.826Z,11.03
2018-06-22T04:01:24.211Z,11.11
2018-06-22T04:02:25.592Z,11.12
2018-06-22T04:03:26.987Z,11.13
2018-06-22T04:04:28.363Z,11.08
2018-06-22T04:05:30.547Z,11.12
2018-06-22T04:06:31.997Z,11.17
2018-06-22T04:07:33.377Z,11.11
2018-06-22T04:08:34.761Z,11.06
2018-06-22T04:09:36.165Z,11.08
2018-06-22T04:10:37.559Z,11.12
2018-06-22T04:11:38.946Z,11.13
2018-06-22T04:12:40.339Z,11.19
2018-06-22T04:13:41.719Z,11.21
2018-06-22T04:14:43.109Z,11.17
2018-06-22T04:15:44.493Z,11.21
2018-06-22T04:16:46.381Z,11.33
2018-06-22T04:17:47.768Z,11.30
2018-06-22T04:18:49.154Z,11.33
2018-06-22T04:19:50.542Z,11.30
2018-06-22T04:20:51.934Z,11.42
2018-06-22T04:21:53.363Z,11.28
2018-06-22T04:22:54.698Z,11.26
2018-06-22T04:23:56.099Z,11.33
2018-06-22T04:24:57.489Z,11.39
2018-06-22T04:25:58.866Z,11.39
2018-06-22T04:27:00.246Z,11.24
2018-06-22T04:28:01.622Z,11.39
2018-06-22T04:29:03.005Z,11.41
2018-06-22T04:30:04.384Z,11.41
2018-06-22T04:31:06.537Z,11.41
2018-06-22T04:32:07.929Z,11.36
2018-06-22T04:33:09.325Z,11.44
2018-06-22T04:34:10.709Z,11.46
2018-06-22T04:35:12.099Z,11.46
2018-06-22T04:36:14.459Z,11.49
2018-06-22T04:37:15.847Z,11.45
2018-06-22T04:38:17.239Z,11.49
2018-06-22T04:39:18.626Z,11.49
2018-06-22T04:40:20.010Z,11.44
2018-06-22T04:41:21.406Z,11.59
2018-06-22T04:42:22.793Z,11.51
2018-06-22T04:43:24.184Z,11.56
2018-06-22T04:44:25.566Z,11.63
2018-06-22T04:45:26.958Z,11.53
2018-06-22T04:46:28.346Z,11.54
2018-06-22T04:47:29.730Z,11.51
2018-06-22T04:48:31.118Z,11.62
2018-06-22T04:49:32.501Z,11.53
2018-06-22T04:50:33.880Z,11.49
2018-06-22T04:51:35.274Z,11.54
2018-06-22T04:52:36.664Z,11.53
2018-06-22T04:53:38.051Z,11.66
2018-06-22T04:54:39.437Z,11.62
2018-06-22T04:55:40.833Z,11.63
2018-06-22T04:56:42.229Z,11.64
2018-06-22T04:57:43.615Z,11.74
2018-06-22T04:58:45.004Z,11.75
2018-06-22T04:59:46.391Z,11.69
2018-06-22T05:00:47.767Z,11.70
2018-06-22T05:01:49.155Z,11.78
2018-06-22T05:02:50.537Z,11.84
2018-06-22T05:03:51.922Z,11.81
2018-06-22T05:04:53.322Z,11.82
2018-06-22T05:05:54.692Z,11.88
2018-06-22T05:06:56.076Z,11.90
2018-06-22T05:07:57.483Z,12.01
2018-06-22T05:08:58.851Z,12.03
2018-06-22T05:10:00.233Z,12.05
2018-06-22T05:11:01.614Z,12.03
2018-06-22T05:12:03.008Z,12.12
2018-06-22T05:13:04.396Z,12.16
2018-06-22T05:14:05.772Z,12.13
2018-06-22T05:15:07.159Z,12.16
2018-06-22T05:16:08.560Z,12.12
2018-06-22T05:17:09.949Z,12.15
2018-06-22T05:18:11.341Z,12.12
2018-06-22T05:19:12.721Z,12.12
2018-06-22T05:20:14.109Z,12.12
2018-06-22T05:21:15.497Z,12.25
2018-06-22T05:22:16.895Z,12.33
2018-06-22T05:23:18.275Z,12.34
2018-06-22T05:24:19.653Z,12.30
2018-06-22T05:25:21.051Z,12.29
2018-06-22T05:26:22.431Z,12.29
2018-06-22T05:27:23.811Z,12.33
2018-06-22T05:28:25.205Z,12.40
2018-06-22T05:29:26.597Z,12.43
2018-06-22T05:30:27.986Z,12.40
2018-06-22T05:31:29.382Z,12.55
2018-06-22T05:32:30.764Z,12.55
2018-06-22T05:33:32.167Z,12.59
2018-06-22T05:34:33.549Z,12.54
2018-06-22T05:35:34.931Z,12.54
2018-06-22T05:36:36.333Z,12.61
2018-06-22T05:37:37.708Z,12.67
2018-06-22T05:38:39.106Z,12.66
2018-06-22T05:39:40.487Z,12.63
2018-06-22T05:40:41.868Z,12.74
2018-06-22T05:41:43.252Z,12.71
2018-06-22T05:42:44.644Z,12.81
2018-06-22T05:43:46.040Z,12.79
2018-06-22T05:44:47.422Z,12.96
2018-06-22T05:45:48.806Z,12.89
2018-06-22T05:46:50.201Z,13.03
2018-06-22T05:47:51.587Z,12.98
2018-06-22T05:48:52.964Z,13.07
2018-06-22T05:49:54.362Z,13.03
2018-06-22T05:50:55.768Z,13.06
2018-06-22T05:51:57.120Z,13.13
2018-06-22T05:52:58.500Z,13.06
2018-06-22T05:53:59.890Z,13.12
2018-06-22T05:55:01.276Z,13.06
2018-06-22T05:56:02.668Z,13.06
2018-06-22T05:57:04.073Z,13.21
2018-06-22T05:58:05.459Z,13.53
2018-06-22T05:59:06.844Z,13.65
2018-06-22T06:00:08.237Z,13.83
2018-06-22T06:01:09.633Z,14.01
2018-06-22T06:02:11.019Z,14.01
2018-06-22T06:03:12.406Z,13.96
2018-06-22T06:04:13.864Z,13.93
2018-06-22T06:05:15.259Z,13.91
2018-06-22T06:06:16.667Z,13.90
2018-06-22T06:07:18.060Z,14.05
2018-06-22T06:08:19.452Z,14.05
2018-06-22T06:09:20.841Z,14.20
2018-06-22T06:10:22.238Z,14.13
2018-06-22T06:11:23.620Z,14.12
2018-06-22T06:12:25.019Z,14.04
2018-06-22T06:13:26.474Z,14.06
2018-06-22T06:14:27.889Z,14.04
2018-06-22T06:15:29.260Z,13.98
2018-06-22T06:16:30.650Z,13.99
2018-06-22T06:17:32.811Z,13.99
2018-06-22T06:18:34.210Z,14.01
2018-06-22T06:19:35.596Z,13.98
2018-06-22T06:20:36.984Z,13.94
2018-06-22T06:21:38.377Z,13.90
2018-06-22T06:22:39.759Z,13.87
2018-06-22T06:23:41.157Z,13.79
2018-06-22T06:24:42.545Z,13.76
2018-06-22T06:25:43.949Z,13.84
2018-06-22T06:26:45.325Z,13.96
2018-06-22T06:27:48.253Z,13.99
2018-06-22T06:28:49.643Z,14.13
2018-06-22T06:29:51.047Z,14.08
2018-06-22T06:30:52.434Z,14.21
2018-06-22T06:31:53.819Z,14.26
2018-06-22T06:32:55.207Z,14.26
2018-06-22T06:33:56.601Z,14.20
2018-06-22T06:34:58.008Z,14.19
2018-06-22T06:35:59.390Z,14.08
2018-06-22T06:37:00.786Z,14.08
2018-06-22T06:38:02.188Z,14.09
2018-06-22T06:39:03.574Z,14.19
2018-06-22T06:40:04.960Z,14.12
2018-06-22T06:41:06.345Z,14.09
2018-06-22T06:42:07.728Z,14.12
2018-06-22T06:43:09.127Z,14.06
2018-06-22T06:44:10.506Z,14.02
2018-06-22T06:45:11.901Z,14.01
2018-06-22T06:46:13.286Z,13.93
2018-06-22T06:47:14.677Z,13.98
2018-06-22T06:48:16.049Z,13.98
2018-06-22T06:49:17.435Z,14.01
2018-06-22T06:50:18.829Z,14.01
2018-06-22T06:51:20.214Z,13.86
2018-06-22T06:52:21.611Z,13.94
2018-06-22T06:53:22.992Z,13.86
2018-06-22T06:54:24.384Z,13.91
2018-06-22T06:55:25.783Z,13.84
2018-06-22T06:56:27.170Z,13.93
2018-06-22T06:57:28.559Z,13.81
2018-06-22T06:58:29.942Z,13.88
2018-06-22T06:59:31.345Z,13.87
2018-06-22T07:00:32.729Z,13.90
2018-06-22T07:01:34.120Z,13.94
2018-06-22T07:02:35.526Z,13.96
2018-06-22T07:03:36.910Z,13.84
2018-06-22T07:04:38.297Z,13.87
2018-06-22T07:05:39.690Z,13.83
2018-06-22T07:06:41.085Z,13.83
2018-06-22T07:07:42.471Z,13.90
2018-06-22T07:08:43.861Z,13.84
2018-06-22T07:09:45.243Z,13.90
2018-06-22T07:10:46.637Z,13.87
2018-06-22T07:11:48.017Z,13.86
2018-06-22T07:12:49.407Z,13.81
2018-06-22T07:13:50.799Z,13.90
2018-06-22T07:14:52.175Z,13.90
2018-06-22T07:15:53.565Z,13.94
2018-06-22T07:16:54.957Z,14.01
2018-06-22T07:17:56.347Z,14.02
2018-06-22T07:18:57.743Z,14.09
2018-06-22T07:19:59.130Z,14.30
2018-06-22T07:21:00.517Z,14.38
2018-06-22T07:22:01.903Z,14.48
2018-06-22T07:23:03.298Z,14.63
2018-06-22T07:24:04.684Z,14.66
2018-06-22T07:25:06.071Z,14.78
2018-06-22T07:26:07.464Z,14.83
2018-06-22T07:27:08.852Z,14.79
2018-06-22T07:28:10.240Z,14.93
2018-06-22T07:29:11.632Z,14.87
2018-06-22T07:30:13.014Z,14.82
2018-06-22T07:31:14.414Z,14.87
2018-06-22T07:32:15.804Z,14.83
2018-06-22T07:33:17.200Z,14.82
2018-06-22T07:34:18.588Z,14.78
2018-06-22T07:35:19.972Z,14.87
2018-06-22T07:36:21.370Z,14.91
2018-06-22T07:37:22.763Z,15.20
2018-06-22T07:38:24.148Z,15.16
2018-06-22T07:39:25.538Z,15.31
2018-06-22T07:40:26.934Z,15.31
2018-06-22T07:41:28.321Z,15.25
2018-06-22T07:42:29.711Z,15.37
2018-06-22T07:43:31.108Z,15.44
2018-06-22T07:44:32.501Z,15.41
2018-06-22T07:45:33.895Z,15.43
2018-06-22T07:46:35.283Z,15.43
2018-06-22T07:47:36.676Z,15.53
2018-06-22T07:48:38.066Z,15.46
2018-06-22T07:49:39.452Z,15.46
2018-06-22T07:50:40.860Z,15.55
2018-06-22T07:51:42.256Z,15.66
2018-06-22T07:52:43.649Z,15.60
2018-06-22T07:53:45.050Z,15.52
2018-06-22T07:54:46.454Z,15.51
2018-06-22T07:55:47.841Z,15.49
2018-06-22T07:56:49.236Z,15.41
2018-06-22T07:57:50.632Z,15.38
2018-06-22T07:58:52.014Z,15.37
2018-06-22T07:59:53.404Z,15.30
2018-06-22T08:00:54.794Z,15.31
2018-06-22T08:01:56.179Z,15.15
2018-06-22T08:02:57.565Z,15.25
2018-06-22T08:03:58.962Z,15.20
2018-06-22T08:05:00.348Z,15.23
2018-06-22T08:06:01.740Z,15.16
2018-06-22T08:07:03.125Z,14.95
2018-06-22T08:08:04.511Z,14.93
2018-06-22T08:09:05.906Z,14.87
2018-06-22T08:10:07.297Z,14.85
2018-06-22T08:11:08.689Z,14.90
2018-06-22T08:12:10.077Z,14.78
2018-06-22T08:13:11.474Z,14.80
2018-06-22T08:14:12.867Z,14.83
2018-06-22T08:15:14.267Z,14.82
2018-06-22T08:16:15.713Z,14.91
2018-06-22T08:17:17.114Z,14.79
2018-06-22T08:18:19.270Z,14.61
2018-06-22T08:19:20.658Z,14.64
2018-06-22T08:20:22.059Z,14.78
2018-06-22T08:21:23.456Z,14.80
2018-06-22T08:22:24.852Z,14.90
2018-06-22T08:23:26.255Z,15.15
2018-06-22T08:24:27.634Z,15.23
2018-06-22T08:25:29.024Z,15.28
2018-06-22T08:26:30.416Z,15.43
2018-06-22T08:27:31.806Z,15.52
2018-06-22T08:28:33.218Z,15.56
2018-06-22T08:29:34.608Z,15.70
2018-06-22T08:30:36.006Z,15.70
2018-06-22T08:31:37.412Z,15.74
2018-06-22T08:32:38.785Z,15.77
2018-06-22T08:33:40.186Z,15.86
2018-06-22T08:34:41.583Z,15.84
2018-06-22T08:35:42.999Z,15.95
2018-06-22T08:36:44.391Z,16.04
2018-06-22T08:37:45.802Z,16.04
2018-06-22T08:38:47.178Z,16.06
2018-06-22T08:39:48.570Z,16.03
2018-06-22T08:40:49.953Z,16.08
2018-06-22T08:41:51.555Z,16.10
2018-06-22T08:42:52.756Z,16.01
2018-06-22T08:43:54.145Z,16.04
2018-06-22T08:44:55.523Z,16.01
2018-06-22T08:45:56.926Z,16.03
2018-06-22T08:46:58.309Z,16.08
2018-06-22T08:47:59.704Z,16.07
2018-06-22T08:49:01.182Z,16.03
2018-06-22T08:50:02.452Z,16.03
2018-06-22T08:51:03.847Z,15.98
2018-06-22T08:52:05.243Z,15.93
2018-06-22T08:53:06.632Z,15.91
2018-06-22T08:54:08.035Z,15.85
2018-06-22T08:55:09.424Z,15.91
2018-06-22T08:56:10.809Z,15.81
2018-06-22T08:57:12.200Z,15.88
2018-06-22T08:58:13.588Z,15.73
2018-06-22T08:59:14.982Z,15.77
2018-06-22T09:00:16.369Z,15.84
2018-06-22T09:01:17.794Z,15.81
2018-06-22T09:02:19.179Z,15.88
2018-06-22T09:03:20.563Z,15.78
2018-06-22T09:04:21.974Z,15.89
2018-06-22T09:05:23.399Z,15.88
2018-06-22T09:06:24.779Z,15.89
2018-06-22T09:07:26.410Z,15.89
2018-06-22T09:08:27.793Z,15.89
2018-06-22T09:09:29.194Z,15.85
2018-06-22T09:10:30.578Z,15.92
2018-06-22T09:11:31.972Z,15.93
2018-06-22T09:12:33.411Z,16.04
2018-06-22T09:13:34.760Z,15.96
2018-06-22T09:14:36.232Z,16.08
2018-06-22T09:15:37.493Z,16.25
2018-06-22T09:16:38.877Z,16.18
2018-06-22T09:17:40.274Z,16.27
2018-06-22T09:18:41.663Z,16.54
2018-06-22T09:19:43.094Z,16.69
2018-06-22T09:20:44.449Z,16.80
2018-06-22T09:21:45.852Z,16.90
2018-06-22T09:22:47.239Z,17.03
2018-06-22T09:23:48.632Z,17.00
2018-06-22T09:24:50.880Z,16.99
2018-06-22T09:25:52.288Z,17.10
2018-06-22T09:26:53.694Z,17.18
2018-06-22T09:27:55.089Z,17.28
2018-06-22T09:28:56.495Z,17.30
2018-06-22T09:29:57.866Z,17.32
2018-06-22T09:30:59.257Z,17.49
2018-06-22T09:32:00.651Z,17.51
2018-06-22T09:33:02.057Z,17.79
2018-06-22T09:34:03.448Z,17.94
2018-06-22T09:35:04.847Z,18.02
2018-06-22T09:36:06.235Z,18.17
2018-06-22T09:37:07.625Z,18.19
2018-06-22T09:38:09.023Z,18.25
2018-06-22T09:39:10.412Z,18.16
2018-06-22T09:40:11.790Z,18.09
2018-06-22T09:41:13.195Z,18.07
2018-06-22T09:42:14.605Z,18.04
2018-06-22T09:43:15.983Z,18.01
2018-06-22T09:44:17.400Z,18.11
2018-06-22T09:45:18.774Z,18.23
2018-06-22T09:46:20.177Z,18.23
2018-06-22T09:47:21.570Z,18.39
2018-06-22T09:48:22.975Z,18.32
2018-06-22T09:49:24.349Z,18.38
2018-06-22T09:50:25.820Z,18.36
2018-06-22T09:51:27.224Z,18.54
2018-06-22T09:52:28.612Z,18.56
2018-06-22T09:53:29.996Z,18.71
2018-06-22T09:54:31.397Z,18.71
2018-06-22T09:55:32.804Z,18.66
2018-06-22T09:56:34.182Z,18.82
2018-06-22T09:57:35.584Z,18.78
2018-06-22T09:58:36.978Z,18.86
2018-06-22T09:59:38.373Z,18.89
2018-06-22T10:00:39.770Z,19.09
2018-06-22T10:01:41.167Z,19.02
2018-06-22T10:02:42.549Z,19.06
2018-06-22T10:03:43.948Z,19.15
2018-06-22T10:04:45.430Z,19.10
2018-06-22T10:05:46.738Z,19.16
2018-06-22T10:06:48.585Z,19.21
2018-06-22T10:07:49.991Z,19.20
2018-06-22T10:08:51.385Z,19.25
2018-06-22T10:09:52.789Z,19.34
2018-06-22T10:10:54.171Z,19.35
2018-06-22T10:11:55.751Z,19.40
2018-06-22T10:12:57.164Z,19.40
2018-06-22T10:13:58.565Z,19.32
2018-06-22T10:14:59.971Z,19.38
2018-06-22T10:16:01.374Z,19.40
2018-06-22T10:17:02.780Z,19.40
2018-06-22T10:18:04.180Z,19.39
2018-06-22T10:19:05.577Z,19.52
2018-06-22T10:20:06.996Z,19.38
2018-06-22T10:21:08.393Z,19.27
2018-06-22T10:22:09.790Z,19.32
2018-06-22T10:23:11.680Z,19.30
2018-06-22T10:24:13.070Z,19.34
2018-06-22T10:25:14.474Z,19.38
2018-06-22T10:26:15.863Z,19.46
2018-06-22T10:27:17.260Z,19.39
2018-06-22T10:28:18.646Z,19.57
2018-06-22T10:29:20.048Z,19.50
2018-06-22T10:30:21.434Z,19.55
2018-06-22T10:31:22.921Z,19.43
2018-06-22T10:32:24.315Z,19.47
2018-06-22T10:33:25.714Z,19.45
2018-06-22T10:34:27.121Z,19.47
2018-06-22T10:35:28.507Z,19.58
2018-06-22T10:36:29.913Z,19.58
2018-06-22T10:37:31.305Z,19.70
2018-06-22T10:38:32.709Z,19.68
2018-06-22T10:39:34.094Z,19.64
2018-06-22T10:40:35.499Z,19.75
2018-06-22T10:41:36.888Z,19.79
2018-06-22T10:42:38.294Z,19.83
2018-06-22T10:43:39.689Z,19.87
2018-06-22T10:44:41.090Z,19.79
2018-06-22T10:45:42.504Z,19.78
2018-06-22T10:46:43.903Z,19.80
2018-06-22T10:47:45.310Z,19.76
2018-06-22T10:48:46.708Z,19.83
2018-06-22T10:49:48.104Z,19.79
2018-06-22T10:50:49.502Z,19.83
2018-06-22T10:51:50.906Z,19.75
2018-06-22T10:52:52.306Z,19.65
2018-06-22T10:53:53.705Z,19.65
2018-06-22T10:54:55.113Z,19.57
2018-06-22T10:55:56.513Z,19.46
2018-06-22T10:56:57.896Z,19.39
2018-06-22T10:57:59.275Z,19.40
2018-06-22T10:59:00.670Z,19.31
2018-06-22T11:00:02.105Z,19.20
2018-06-22T11:01:03.475Z,19.25
2018-06-22T11:02:04.859Z,19.15
2018-06-22T11:03:06.259Z,19.13
2018-06-22T11:04:07.649Z,19.06
2018-06-22T11:05:09.053Z,18.90
2018-06-22T11:06:10.453Z,18.93
2018-06-22T11:07:11.849Z,18.97
2018-06-22T11:08:13.239Z,18.75
2018-06-22T11:09:14.624Z,18.69
2018-06-22T11:10:16.028Z,18.64
2018-06-22T11:11:17.413Z,18.59
2018-06-22T11:12:18.808Z,18.57
2018-06-22T11:13:20.208Z,18.68
2018-06-22T11:14:21.609Z,18.82
2018-06-22T11:15:23.000Z,18.76
2018-06-22T11:16:24.400Z,18.97
2018-06-22T11:17:25.778Z,19.24
2018-06-22T11:18:27.269Z,19.30
2018-06-22T11:19:28.573Z,19.43
2018-06-22T11:20:29.962Z,19.60
2018-06-22T11:21:31.363Z,19.65
2018-06-22T11:22:32.748Z,19.82
2018-06-22T11:23:34.144Z,19.87
2018-06-22T11:24:35.562Z,19.92
2018-06-22T11:25:36.947Z,19.82
2018-06-22T11:26:38.343Z,20.01
2018-06-22T11:27:39.734Z,19.98
2018-06-22T11:28:41.133Z,20.04
2018-06-22T11:29:42.527Z,19.98
2018-06-22T11:30:43.959Z,20.02
2018-06-22T11:31:45.309Z,19.79
2018-06-22T11:32:46.709Z,19.87
2018-06-22T11:33:48.113Z,19.76
2018-06-22T11:34:49.501Z,19.67
2018-06-22T11:35:50.930Z,19.67
2018-06-22T11:36:52.303Z,19.52
2018-06-22T11:37:53.697Z,19.47
2018-06-22T11:38:55.099Z,19.57
2018-06-22T11:39:56.486Z,19.50
2018-06-22T11:40:57.876Z,19.45
2018-06-22T11:42:00.039Z,19.40
2018-06-22T11:43:01.430Z,19.40
2018-06-22T11:44:02.828Z,19.32
2018-06-22T11:45:04.218Z,19.28
2018-06-22T11:46:05.614Z,19.31
2018-06-22T11:47:07.018Z,19.30
2018-06-22T11:48:08.401Z,19.35
2018-06-22T11:49:09.799Z,19.32
2018-06-22T11:50:11.198Z,19.45
2018-06-22T11:51:12.649Z,19.55
2018-06-22T11:52:13.993Z,19.52
2018-06-22T11:53:15.381Z,19.47
2018-06-22T11:54:16.785Z,19.47
2018-06-22T11:55:18.179Z,19.52
2018-06-22T11:56:19.579Z,19.50
2018-06-22T11:57:20.973Z,19.50
2018-06-22T11:58:22.359Z,19.57
2018-06-22T11:59:23.747Z,19.58
2018-06-22T12:00:25.153Z,19.62
2018-06-22T12:01:26.548Z,19.65
2018-06-22T12:02:27.949Z,19.60
2018-06-22T12:03:29.345Z,19.65
2018-06-22T12:04:30.743Z,19.61
2018-06-22T12:05:32.130Z,19.58
2018-06-22T12:06:33.532Z,19.60
2018-06-22T12:07:34.920Z,19.60
2018-06-22T12:08:36.315Z,19.57
2018-06-22T12:09:37.712Z,19.61
2018-06-22T12:10:39.953Z,19.60
2018-06-22T12:11:41.348Z,19.67
2018-06-22T12:12:42.747Z,19.64
2018-06-22T12:13:44.147Z,19.75
2018-06-22T12:14:45.544Z,19.89
2018-06-22T12:15:46.934Z,20.15
2018-06-22T12:16:48.325Z,20.31
2018-06-22T12:17:49.712Z,20.35
2018-06-22T12:18:51.109Z,20.44
2018-06-22T12:19:52.508Z,20.61
2018-06-22T12:20:53.902Z,20.76
2018-06-22T12:21:55.302Z,20.97
2018-06-22T12:22:56.693Z,21.11
2018-06-22T12:23:58.104Z,21.31
2018-06-22T12:24:59.489Z,21.45
2018-06-22T12:26:00.891Z,21.63
2018-06-22T12:27:02.282Z,21.71
2018-06-22T12:28:03.681Z,21.83
2018-06-22T12:29:05.087Z,21.81
2018-06-22T12:30:06.482Z,21.64
2018-06-22T12:31:07.879Z,21.59
2018-06-22T12:32:09.283Z,21.68
2018-06-22T12:33:10.732Z,21.90
2018-06-22T12:34:12.074Z,22.04
2018-06-22T12:35:13.468Z,22.15
2018-06-22T12:36:14.872Z,22.26
2018-06-22T12:37:16.264Z,22.38
2018-06-22T12:38:17.680Z,22.54
2018-06-22T12:39:19.084Z,22.81
2018-06-22T12:40:20.476Z,23.03
2018-06-22T12:41:21.867Z,23.21
2018-06-22T12:42:23.258Z,23.00
2018-06-22T12:43:24.659Z,22.81
2018-06-22T12:44:26.053Z,22.52
2018-06-22T12:45:27.442Z,22.30
2018-06-22T12:46:28.832Z,22.02
2018-06-22T12:47:30.226Z,21.93
2018-06-22T12:48:31.625Z,21.81
2018-06-22T12:49:33.007Z,21.71
2018-06-22T12:50:34.415Z,21.51
2018-06-22T12:51:35.811Z,21.36
2018-06-22T12:52:37.217Z,21.16
2018-06-22T12:53:38.602Z,21.12
2018-06-22T12:54:40.004Z,21.05
2018-06-22T12:55:41.407Z,21.00
2018-06-22T12:56:42.800Z,20.85
2018-06-22T12:57:44.198Z,20.81
2018-06-22T12:58:45.586Z,20.68
2018-06-22T12:59:46.985Z,20.61
2018-06-22T13:00:48.379Z,20.54
2018-06-22T13:01:49.774Z,20.37
2018-06-22T13:02:51.170Z,20.33
2018-06-22T13:03:52.578Z,20.23
2018-06-22T13:04:53.968Z,20.17
2018-06-22T13:05:55.364Z,20.13
2018-06-22T13:06:56.754Z,20.19
2018-06-22T13:07:58.154Z,20.20
2018-06-22T13:08:59.546Z,20.25
2018-06-22T13:10:00.943Z,20.30
2018-06-22T13:11:02.331Z,20.38